createdAt,value
2016-07-24T00:00:45.712Z,0
2016-07-24T00:01:46.470Z,0
2016-07-24T00:02:45.804Z,0
2016-07-24T00:03:45.811Z,0
2016-07-24T00:04:46.597Z,0
2016-07-24T00:05:46.653Z,0
2016-07-24T00:06:45.303Z,0
2016-07-24T00:07:46.050Z,0
2016-07-24T00:08:46.115Z,0
2016-07-24T00:09:46.845Z,0
2016-07-24T00:10:46.906Z,0
2016-07-24T00:11:46.956Z,0
2016-07-24T00:12:46.969Z,0
2016-07-24T00:13:47.047Z,0
2016-07-24T00:14:45.640Z,0
2016-07-24T00:15:47.143Z,0
2016-07-24T00:16:47.193Z,0
2016-07-24T00:17:46.522Z,0
2016-07-24T00:18:47.271Z,0
2016-07-24T00:19:47.352Z,0
2016-07-24T00:20:46.665Z,0
2016-07-24T00:21:47.593Z,0
2016-07-24T00:22:46.070Z,0
2016-07-24T00:23:46.793Z,0
2016-07-24T00:24:46.826Z,0
2016-07-24T00:25:47.612Z,0
2016-07-24T00:26:47.617Z,0
2016-07-24T00:27:46.988Z,0
2016-07-24T00:28:47.726Z,0
2016-07-24T00:29:47.088Z,0
2016-07-24T00:30:47.124Z,0
2016-07-24T00:31:47.912Z,0
2016-07-24T00:32:47.917Z,0
2016-07-24T00:33:47.971Z,0
2016-07-24T00:34:47.327Z,0
2016-07-24T00:35:48.080Z,0
2016-07-24T00:36:48.166Z,0
2016-07-24T00:37:48.173Z,0
2016-07-24T00:38:47.534Z,0
2016-07-24T00:39:48.277Z,0
2016-07-24T00:40:48.338Z,0
2016-07-24T00:41:48.347Z,0
2016-07-24T00:42:48.636Z,0
2016-07-24T00:43:48.469Z,0
2016-07-24T00:44:48.511Z,0
2016-07-24T00:45:47.894Z,0
2016-07-24T00:46:47.873Z,0
2016-07-24T00:47:48.700Z,0
2016-07-24T00:48:48.694Z,0
2016-07-24T00:49:48.041Z,0
2016-07-24T00:50:47.379Z,0
2016-07-24T00:51:48.174Z,0
2016-07-24T00:52:48.908Z,0
2016-07-24T00:53:47.547Z,0
2016-07-24T00:54:48.324Z,0
2016-07-24T00:55:49.061Z,0
2016-07-24T00:56:48.384Z,0
2016-07-24T00:57:47.035Z,0
2016-07-24T00:58:49.375Z,0
2016-07-24T00:59:48.523Z,0
2016-07-24T01:00:47.875Z,0
2016-07-24T01:01:48.646Z,0
2016-07-24T01:02:48.668Z,0
2016-07-24T01:03:49.469Z,0
2016-07-24T01:04:49.512Z,0
2016-07-24T01:05:49.547Z,0
2016-07-24T01:06:49.573Z,0
2016-07-24T01:07:49.633Z,0
2016-07-24T01:08:48.241Z,0
2016-07-24T01:09:49.702Z,0
2016-07-24T01:10:49.768Z,0
2016-07-24T01:11:49.809Z,0
2016-07-24T01:12:49.846Z,0
2016-07-24T01:13:49.201Z,0
2016-07-24T01:14:49.260Z,0
2016-07-24T01:15:48.626Z,0
2016-07-24T01:16:48.640Z,0
2016-07-24T01:17:49.390Z,0
2016-07-24T01:18:50.177Z,0
2016-07-24T01:19:49.498Z,0
2016-07-24T01:20:48.859Z,0
2016-07-24T01:21:48.903Z,0
2016-07-24T01:22:49.648Z,0
2016-07-24T01:23:50.395Z,0
2016-07-24T01:24:49.731Z,0
2016-07-24T01:25:49.105Z,0
2016-07-24T01:26:49.867Z,0
2016-07-24T01:27:49.209Z,0
2016-07-24T01:28:49.917Z,0
2016-07-24T01:29:50.667Z,0
2016-07-24T01:30:49.999Z,0
2016-07-24T01:31:50.784Z,0
2016-07-24T01:32:50.105Z,0
2016-07-24T01:33:50.855Z,0
2016-07-24T01:34:50.914Z,0
2016-07-24T01:35:50.941Z,0
2016-07-24T01:36:49.605Z,0
2016-07-24T01:37:50.342Z,0
2016-07-24T01:38:49.695Z,0
2016-07-24T01:39:50.436Z,0
2016-07-24T01:40:51.216Z,0
2016-07-24T01:41:51.234Z,0
2016-07-24T01:42:49.901Z,0
2016-07-24T01:43:51.344Z,0
2016-07-24T01:44:51.385Z,0
2016-07-24T01:45:50.737Z,0
2016-07-24T01:46:51.493Z,0
2016-07-24T01:47:51.512Z,0
2016-07-24T01:48:50.192Z,0
2016-07-24T01:49:51.600Z,0
2016-07-24T01:50:51.661Z,0
2016-07-24T01:51:50.337Z,0
2016-07-24T01:52:51.050Z,0
2016-07-24T01:53:51.115Z,0
2016-07-24T01:54:51.139Z,0
2016-07-24T01:55:51.220Z,0
2016-07-24T01:56:51.314Z,0
2016-07-24T01:57:51.325Z,0
2016-07-24T01:58:51.403Z,0
2016-07-24T01:59:52.093Z,0
2016-07-24T02:00:51.462Z,0
2016-07-24T02:01:52.174Z,0
2016-07-24T02:02:51.604Z,0
2016-07-24T02:03:50.886Z,0
2016-07-24T02:04:52.342Z,0
2016-07-24T02:05:51.703Z,0
2016-07-24T02:06:51.710Z,0
2016-07-24T02:07:52.451Z,0
2016-07-24T02:08:52.571Z,0
2016-07-24T02:09:52.570Z,0
2016-07-24T02:10:52.625Z,0
2016-07-24T02:11:52.665Z,0
2016-07-24T02:12:50.619Z,0
2016-07-24T02:13:52.788Z,0
2016-07-24T02:14:52.122Z,0
2016-07-24T02:15:52.859Z,0
2016-07-24T02:16:52.208Z,0
2016-07-24T02:17:51.575Z,0
2016-07-24T02:18:52.331Z,0
2016-07-24T02:19:52.373Z,0
2016-07-24T02:20:53.112Z,0
2016-07-24T02:21:51.763Z,0
2016-07-24T02:22:51.801Z,0
2016-07-24T02:23:53.284Z,0
2016-07-24T02:24:52.573Z,0
2016-07-24T02:25:51.959Z,0
2016-07-24T02:26:53.416Z,0
2016-07-24T02:27:52.789Z,0
2016-07-24T02:28:53.513Z,0
2016-07-24T02:29:53.537Z,0
2016-07-24T02:30:52.900Z,0
2016-07-24T02:31:52.248Z,0
2016-07-24T02:32:52.987Z,0
2016-07-24T02:33:52.360Z,0
2016-07-24T02:34:52.379Z,0
2016-07-24T02:35:52.425Z,0
2016-07-24T02:36:53.850Z,0
2016-07-24T02:37:53.913Z,0
2016-07-24T02:38:53.259Z,0
2016-07-24T02:39:54.044Z,0
2016-07-24T02:40:53.383Z,0
2016-07-24T02:41:53.415Z,0
2016-07-24T02:42:54.184Z,0
2016-07-24T02:43:52.826Z,0
2016-07-24T02:44:54.267Z,0
2016-07-24T02:45:54.298Z,0
2016-07-24T02:46:54.367Z,0
2016-07-24T02:47:53.701Z,0
2016-07-24T02:48:53.747Z,0
2016-07-24T02:49:54.535Z,0
2016-07-24T02:50:53.855Z,0
2016-07-24T02:51:53.908Z,0
2016-07-24T02:52:53.270Z,0
2016-07-24T02:53:54.023Z,0
2016-07-24T02:54:54.043Z,0
2016-07-24T02:55:54.779Z,0
2016-07-24T02:56:54.846Z,0
2016-07-24T02:57:54.895Z,0
2016-07-24T02:58:54.237Z,0
2016-07-24T02:59:54.257Z,0
2016-07-24T03:00:54.317Z,0
2016-07-24T03:01:55.058Z,0
2016-07-24T03:02:53.732Z,0
2016-07-24T03:03:54.472Z,0
2016-07-24T03:04:54.488Z,0
2016-07-24T03:05:55.287Z,0
2016-07-24T03:06:54.647Z,0
2016-07-24T03:07:53.966Z,0
2016-07-24T03:08:55.402Z,0
2016-07-24T03:09:54.788Z,0
2016-07-24T03:10:55.504Z,0
2016-07-24T03:11:55.555Z,0
2016-07-24T03:12:54.875Z,0
2016-07-24T03:13:54.257Z,0
2016-07-24T03:14:54.310Z,0
2016-07-24T03:15:55.048Z,0
2016-07-24T03:16:55.797Z,0
2016-07-24T03:17:53.740Z,0
2016-07-24T03:18:54.493Z,0
2016-07-24T03:19:55.256Z,0
2016-07-24T03:20:55.286Z,0
2016-07-24T03:21:56.014Z,0
2016-07-24T03:22:56.097Z,0
2016-07-24T03:23:56.150Z,0
2016-07-24T03:24:56.157Z,0
2016-07-24T03:25:55.551Z,0
2016-07-24T03:26:56.310Z,0
2016-07-24T03:27:56.355Z,0
2016-07-24T03:28:56.397Z,0
2016-07-24T03:29:56.416Z,0
2016-07-24T03:30:56.477Z,5
2016-07-24T03:31:55.825Z,5
2016-07-24T03:32:56.542Z,5
2016-07-24T03:33:55.212Z,5
2016-07-24T03:34:56.673Z,5
2016-07-24T03:35:56.684Z,5
2016-07-24T03:36:56.751Z,10
2016-07-24T03:37:56.828Z,10
2016-07-24T03:38:55.477Z,10
2016-07-24T03:39:56.899Z,15
2016-07-24T03:40:55.584Z,15
2016-07-24T03:41:56.318Z,15
2016-07-24T03:42:56.362Z,20
2016-07-24T03:43:56.417Z,20
2016-07-24T03:44:57.132Z,25
2016-07-24T03:45:56.518Z,25
2016-07-24T03:46:57.249Z,25
2016-07-24T03:47:56.566Z,30
2016-07-24T03:48:55.939Z,30
2016-07-24T03:49:57.379Z,35
2016-07-24T03:50:57.447Z,35
2016-07-24T03:51:57.455Z,40
2016-07-24T03:52:56.834Z,40
2016-07-24T03:53:56.165Z,45
2016-07-24T03:54:56.927Z,45
2016-07-24T03:55:55.575Z,50
2016-07-24T03:56:57.784Z,55
2016-07-24T03:57:57.074Z,65
2016-07-24T03:58:57.127Z,75
2016-07-24T03:59:57.187Z,85
2016-07-24T04:00:57.903Z,85
2016-07-24T04:01:56.598Z,95
2016-07-24T04:02:57.347Z,100
2016-07-24T04:03:58.069Z,110
2016-07-24T04:04:57.393Z,115
2016-07-24T04:05:57.442Z,125
2016-07-24T04:06:58.217Z,125
2016-07-24T04:07:57.615Z,130
2016-07-24T04:08:58.512Z,130
2016-07-24T04:09:58.340Z,135
2016-07-24T04:10:57.725Z,135
2016-07-24T04:11:57.757Z,120
2016-07-24T04:12:57.098Z,135
2016-07-24T04:13:57.816Z,150
2016-07-24T04:14:58.604Z,165
2016-07-24T04:15:57.958Z,170
2016-07-24T04:16:58.024Z,185
2016-07-24T04:17:58.765Z,190
2016-07-24T04:18:58.807Z,190
2016-07-24T04:19:58.148Z,170
2016-07-24T04:20:58.914Z,165
2016-07-24T04:21:58.948Z,155
2016-07-24T04:22:57.605Z,150
2016-07-24T04:23:59.000Z,150
2016-07-24T04:24:58.389Z,160
2016-07-24T04:25:58.411Z,175
2016-07-24T04:26:58.497Z,190
2016-07-24T04:27:58.517Z,220
2016-07-24T04:28:57.879Z,220
2016-07-24T04:29:59.308Z,210
2016-07-24T04:30:58.662Z,225
2016-07-24T04:31:57.308Z,235
2016-07-24T04:32:58.049Z,240
2016-07-24T04:33:59.552Z,260
2016-07-24T04:34:59.565Z,285
2016-07-24T04:35:59.645Z,305
2016-07-24T04:36:59.669Z,320
2016-07-24T04:37:59.704Z,320
2016-07-24T04:38:59.056Z,320
2016-07-24T04:39:59.817Z,330
2016-07-24T04:40:59.119Z,340
2016-07-24T04:41:59.199Z,350
2016-07-24T04:42:59.939Z,360
2016-07-24T04:44:00.228Z,370
2016-07-24T04:44:59.349Z,385
2016-07-24T04:45:59.364Z,385
2016-07-24T04:46:59.474Z,385
2016-07-24T04:47:59.538Z,395
2016-07-24T04:48:59.517Z,410
2016-07-24T04:50:00.316Z,425
2016-07-24T04:51:00.345Z,450
2016-07-24T04:52:00.384Z,425
2016-07-24T04:52:59.029Z,470
2016-07-24T04:53:59.789Z,485
2016-07-24T04:54:59.849Z,495
2016-07-24T04:55:59.849Z,500
2016-07-24T04:56:59.896Z,505
2016-07-24T04:57:59.985Z,510
2016-07-24T04:59:00.734Z,520
2016-07-24T05:00:00.068Z,525
2016-07-24T05:01:00.804Z,540
2016-07-24T05:02:00.924Z,565
2016-07-24T05:03:00.952Z,570
2016-07-24T05:04:00.981Z,560
2016-07-24T05:05:01.031Z,555
2016-07-24T05:06:01.075Z,550
2016-07-24T05:07:00.438Z,540
2016-07-24T05:08:00.432Z,540
2016-07-24T05:09:01.214Z,575
2016-07-24T05:09:59.859Z,620
2016-07-24T05:11:01.318Z,625
2016-07-24T05:12:01.337Z,580
2016-07-24T05:13:00.711Z,610
2016-07-24T05:14:01.455Z,615
2016-07-24T05:15:00.831Z,505
2016-07-24T05:16:01.526Z,650
2016-07-24T05:17:00.200Z,655
2016-07-24T05:18:01.653Z,735
2016-07-24T05:19:01.017Z,725
2016-07-24T05:20:01.059Z,710
2016-07-24T05:21:01.115Z,720
2016-07-24T05:22:00.694Z,730
2016-07-24T05:23:01.180Z,725
2016-07-24T05:24:01.301Z,730
2016-07-24T05:25:01.317Z,700
2016-07-24T05:26:01.380Z,675
2016-07-24T05:27:01.395Z,760
2016-07-24T05:28:02.120Z,765
2016-07-24T05:29:02.171Z,775
2016-07-24T05:30:01.556Z,780
2016-07-24T05:31:02.321Z,800
2016-07-24T05:32:02.359Z,810
2016-07-24T05:33:01.738Z,820
2016-07-24T05:34:01.070Z,830
2016-07-24T05:35:02.515Z,835
2016-07-24T05:36:02.556Z,825
2016-07-24T05:37:01.192Z,825
2016-07-24T05:38:01.942Z,825
2016-07-24T05:39:02.016Z,830
2016-07-24T05:40:02.744Z,830
2016-07-24T05:41:02.786Z,830
2016-07-24T05:42:02.869Z,855
2016-07-24T05:43:02.189Z,865
2016-07-24T05:44:02.950Z,860
2016-07-24T05:45:02.982Z,855
2016-07-24T05:46:03.076Z,860
2016-07-24T05:47:02.400Z,880
2016-07-24T05:48:02.808Z,885
2016-07-24T05:49:03.163Z,885
2016-07-24T05:50:03.284Z,895
2016-07-24T05:51:02.605Z,910
2016-07-24T05:52:03.332Z,920
2016-07-24T05:53:02.659Z,925
2016-07-24T05:54:03.461Z,925
2016-07-24T05:55:03.536Z,885
2016-07-24T05:56:02.867Z,895
2016-07-24T05:57:03.567Z,835
2016-07-24T05:58:02.965Z,710
2016-07-24T05:59:02.989Z,790
2016-07-24T06:00:03.725Z,875
2016-07-24T06:01:03.800Z,985
2016-07-24T06:02:03.844Z,1005
2016-07-24T06:03:03.962Z,1015
2016-07-24T06:04:03.299Z,1040
2016-07-24T06:05:03.298Z,1055
2016-07-24T06:06:04.032Z,1080
2016-07-24T06:07:04.167Z,1105
2016-07-24T06:08:04.152Z,1115
2016-07-24T06:09:04.211Z,1120
2016-07-24T06:10:04.272Z,1095
2016-07-24T06:11:03.623Z,1075
2016-07-24T06:12:04.609Z,1080
2016-07-24T06:13:04.425Z,1060
2016-07-24T06:14:03.740Z,1100
2016-07-24T06:15:04.535Z,1090
2016-07-24T06:16:04.565Z,1075
2016-07-24T06:17:04.607Z,1090
2016-07-24T06:18:04.659Z,1110
2016-07-24T06:19:04.705Z,1115
2016-07-24T06:20:04.777Z,1135
2016-07-24T06:21:04.097Z,1145
2016-07-24T06:22:04.881Z,1110
2016-07-24T06:23:04.198Z,1100
2016-07-24T06:24:04.976Z,1200
2016-07-24T06:25:04.337Z,1110
2016-07-24T06:26:03.661Z,1255
2016-07-24T06:27:05.180Z,1245
2016-07-24T06:28:05.201Z,1290
2016-07-24T06:29:05.256Z,1315
2016-07-24T06:30:05.260Z,1340
2016-07-24T06:31:04.617Z,1325
2016-07-24T06:32:04.679Z,1350
2016-07-24T06:33:04.732Z,1420
2016-07-24T06:34:05.447Z,1425
2016-07-24T06:35:05.519Z,1445
2016-07-24T06:36:05.628Z,1420
2016-07-24T06:37:05.636Z,1375
2016-07-24T06:38:05.649Z,1420
2016-07-24T06:39:05.086Z,1445
2016-07-24T06:40:05.088Z,1540
2016-07-24T06:41:05.102Z,1505
2016-07-24T06:42:05.920Z,1475
2016-07-24T06:43:05.945Z,1475
2016-07-24T06:44:05.294Z,1495
2016-07-24T06:45:06.073Z,1520
2016-07-24T06:46:06.097Z,1555
2016-07-24T06:47:05.461Z,1505
2016-07-24T06:48:06.357Z,1515
2016-07-24T06:49:06.221Z,1425
2016-07-24T06:50:06.275Z,1345
2016-07-24T06:51:05.657Z,1400
2016-07-24T06:52:05.705Z,1465
2016-07-24T06:53:06.464Z,1565
2016-07-24T06:54:06.519Z,1555
2016-07-24T06:55:05.226Z,1590
2016-07-24T06:56:06.635Z,1600
2016-07-24T06:57:05.955Z,1640
2016-07-24T06:58:05.279Z,1645
2016-07-24T06:59:06.049Z,1680
2016-07-24T07:00:06.806Z,1550
2016-07-24T07:01:06.147Z,1665
2016-07-24T07:02:06.230Z,1490
2016-07-24T07:03:05.567Z,1365
2016-07-24T07:04:06.292Z,1605
2016-07-24T07:05:07.090Z,1520
2016-07-24T07:06:06.409Z,1745
2016-07-24T07:07:07.355Z,1350
2016-07-24T07:08:07.257Z,1765
2016-07-24T07:09:07.224Z,2025
2016-07-24T07:10:07.355Z,1855
2016-07-24T07:11:07.341Z,1770
2016-07-24T07:12:06.695Z,1500
2016-07-24T07:13:07.024Z,1295
2016-07-24T07:14:07.501Z,895
2016-07-24T07:15:07.586Z,830
2016-07-24T07:16:07.620Z,1785
2016-07-24T07:17:06.927Z,855
2016-07-24T07:18:07.028Z,1690
2016-07-24T07:19:06.369Z,1780
2016-07-24T07:20:07.126Z,1760
2016-07-24T07:21:07.870Z,1740
2016-07-24T07:22:07.885Z,1630
2016-07-24T07:23:07.242Z,1570
2016-07-24T07:24:07.284Z,1485
2016-07-24T07:25:07.603Z,1650
2016-07-24T07:26:08.117Z,1920
2016-07-24T07:27:08.160Z,2000
2016-07-24T07:28:08.230Z,2160
2016-07-24T07:29:07.567Z,2280
2016-07-24T07:30:08.603Z,2305
2016-07-24T07:31:07.659Z,2375
2016-07-24T07:32:08.391Z,2635
2016-07-24T07:33:08.481Z,2080
2016-07-24T07:34:07.142Z,3005
2016-07-24T07:35:08.702Z,2735
2016-07-24T07:36:07.220Z,1050
2016-07-24T07:37:08.657Z,1065
2016-07-24T07:38:08.969Z,2640
2016-07-24T07:39:06.656Z,960
2016-07-24T07:40:09.091Z,1985
2016-07-24T07:41:08.147Z,895
2016-07-24T07:42:08.935Z,805
2016-07-24T07:43:08.272Z,1500
2016-07-24T07:44:08.347Z,1710
2016-07-24T07:45:08.742Z,2070
2016-07-24T07:46:09.151Z,1965
2016-07-24T07:47:08.485Z,2880
2016-07-24T07:48:09.538Z,2335
2016-07-24T07:49:09.264Z,2415
2016-07-24T07:50:09.290Z,2985
2016-07-24T07:51:07.976Z,1355
2016-07-24T07:52:09.426Z,890
2016-07-24T07:53:09.480Z,975
2016-07-24T07:54:09.550Z,1355
2016-07-24T07:55:08.159Z,1925
2016-07-24T07:56:08.899Z,950
2016-07-24T07:57:08.992Z,1270
2016-07-24T07:58:09.710Z,2105
2016-07-24T07:59:09.082Z,1240
2016-07-24T08:00:09.817Z,1030
2016-07-24T08:01:08.485Z,1110
2016-07-24T08:02:09.959Z,875
2016-07-24T08:03:09.300Z,1155
2016-07-24T08:04:10.045Z,1015
2016-07-24T08:05:10.060Z,2310
2016-07-24T08:06:08.707Z,2940
2016-07-24T08:07:10.157Z,2990
2016-07-24T08:08:10.493Z,2480
2016-07-24T08:09:10.306Z,1060
2016-07-24T08:10:09.656Z,2175
2016-07-24T08:11:10.382Z,1975
2016-07-24T08:12:10.419Z,2265
2016-07-24T08:13:10.687Z,2550
2016-07-24T08:14:10.520Z,2820
2016-07-24T08:15:10.589Z,3035
2016-07-24T08:16:09.911Z,3145
2016-07-24T08:17:09.996Z,3165
2016-07-24T08:18:10.008Z,1525
2016-07-24T08:19:10.763Z,3420
2016-07-24T08:20:10.131Z,3060
2016-07-24T08:21:10.179Z,2720
2016-07-24T08:22:10.942Z,2785
2016-07-24T08:23:10.952Z,2620
2016-07-24T08:24:10.336Z,2670
2016-07-24T08:25:10.620Z,1770
2016-07-24T08:26:10.458Z,1460
2016-07-24T08:27:11.188Z,3270
2016-07-24T08:28:11.449Z,3510
2016-07-24T08:29:11.277Z,3035
2016-07-24T08:30:10.646Z,3300
2016-07-24T08:31:11.366Z,3435
2016-07-24T08:32:11.444Z,2740
2016-07-24T08:33:10.776Z,2335
2016-07-24T08:34:11.532Z,2900
2016-07-24T08:35:11.703Z,1550
2016-07-24T08:36:10.932Z,3785
2016-07-24T08:37:11.667Z,3345
2016-07-24T08:38:11.693Z,3445
2016-07-24T08:39:11.757Z,3515
2016-07-24T08:40:11.842Z,3675
2016-07-24T08:41:11.172Z,3945
2016-07-24T08:42:11.903Z,3895
2016-07-24T08:43:11.252Z,2850
2016-07-24T08:44:11.299Z,995
2016-07-24T08:45:12.096Z,850
2016-07-24T08:46:12.129Z,1505
2016-07-24T08:47:10.812Z,2910
2016-07-24T08:48:11.652Z,1210
2016-07-24T08:49:12.271Z,1710
2016-07-24T08:50:12.301Z,1230
2016-07-24T08:51:12.415Z,715
2016-07-24T08:52:11.721Z,1025
2016-07-24T08:53:12.466Z,1025
2016-07-24T08:54:12.525Z,860
2016-07-24T08:55:12.619Z,1010
2016-07-24T08:56:11.951Z,950
2016-07-24T08:57:11.954Z,1180
2016-07-24T08:58:12.028Z,1590
2016-07-24T08:59:13.070Z,1595
2016-07-24T09:00:10.752Z,1200
2016-07-24T09:01:12.862Z,1735
2016-07-24T09:02:12.931Z,1045
2016-07-24T09:03:12.998Z,2175
2016-07-24T09:04:11.633Z,3475
2016-07-24T09:05:13.137Z,4975
2016-07-24T09:06:12.433Z,4340
2016-07-24T09:07:13.202Z,3520
2016-07-24T09:08:12.601Z,3595
2016-07-24T09:09:13.299Z,3435
2016-07-24T09:10:13.364Z,3350
2016-07-24T09:11:12.649Z,3530
2016-07-24T09:12:13.428Z,3915
2016-07-24T09:13:13.499Z,4115
2016-07-24T09:14:13.540Z,3670
2016-07-24T09:15:12.300Z,3960
2016-07-24T09:16:13.617Z,4170
2016-07-24T09:17:12.991Z,3090
2016-07-24T09:18:13.712Z,2435
2016-07-24T09:19:13.799Z,2495
2016-07-24T09:20:13.863Z,2500
2016-07-24T09:21:14.107Z,2540
2016-07-24T09:22:13.914Z,2955
2016-07-24T09:23:13.286Z,3655
2016-07-24T09:24:14.067Z,3900
2016-07-24T09:25:13.422Z,4105
2016-07-24T09:26:14.156Z,3810
2016-07-24T09:27:14.189Z,3580
2016-07-24T09:28:14.231Z,3580
2016-07-24T09:29:14.330Z,3090
2016-07-24T09:30:14.352Z,2985
2016-07-24T09:31:14.406Z,3565
2016-07-24T09:32:13.751Z,3525
2016-07-24T09:33:14.483Z,3805
2016-07-24T09:34:14.511Z,3880
2016-07-24T09:35:13.885Z,4045
2016-07-24T09:36:13.959Z,3765
2016-07-24T09:37:14.889Z,3315
2016-07-24T09:38:14.780Z,3620
2016-07-24T09:39:14.106Z,3770
2016-07-24T09:40:14.148Z,3735
2016-07-24T09:41:14.169Z,3835
2016-07-24T09:42:14.265Z,3815
2016-07-24T09:43:15.042Z,3930
2016-07-24T09:44:15.047Z,3425
2016-07-24T09:45:14.428Z,2990
2016-07-24T09:46:15.160Z,3285
2016-07-24T09:47:16.614Z,3570
2016-07-24T09:48:14.898Z,3460
2016-07-24T09:49:14.618Z,3195
2016-07-24T09:50:15.352Z,3430
2016-07-24T09:51:14.723Z,3555
2016-07-24T09:52:15.466Z,3700
2016-07-24T09:53:14.832Z,3805
2016-07-24T09:54:14.197Z,3745
2016-07-24T09:55:17.018Z,3645
2016-07-24T09:56:18.032Z,3520
2016-07-24T09:57:15.033Z,2920
2016-07-24T09:58:15.787Z,3255
2016-07-24T09:59:17.201Z,3445
2016-07-24T10:00:15.876Z,3580
2016-07-24T10:01:15.233Z,4135
2016-07-24T10:02:17.211Z,3755
2016-07-24T10:03:17.190Z,3130
2016-07-24T10:04:16.793Z,2520
2016-07-24T10:05:16.151Z,2555
2016-07-24T10:06:17.388Z,3195
2016-07-24T10:07:15.524Z,3015
2016-07-24T10:08:14.875Z,3085
2016-07-24T10:09:15.622Z,4765
2016-07-24T10:10:15.678Z,6010
2016-07-24T10:11:16.437Z,5520
2016-07-24T10:12:15.093Z,5355
2016-07-24T10:13:16.521Z,4165
2016-07-24T10:14:16.540Z,3280
2016-07-24T10:15:15.915Z,3370
2016-07-24T10:16:16.711Z,3435
2016-07-24T10:17:16.020Z,3465
2016-07-24T10:18:16.092Z,4185
2016-07-24T10:19:16.129Z,4305
2016-07-24T10:20:16.890Z,4095
2016-07-24T10:21:16.230Z,4320
2016-07-24T10:22:17.008Z,4565
2016-07-24T10:23:16.353Z,4585
2016-07-24T10:24:17.101Z,4445
2016-07-24T10:25:17.146Z,5185
2016-07-24T10:26:16.470Z,4780
2016-07-24T10:27:17.267Z,4245
2016-07-24T10:28:15.887Z,4550
2016-07-24T10:29:17.374Z,4315
2016-07-24T10:30:15.985Z,4470
2016-07-24T10:31:17.473Z,4930
2016-07-24T10:32:16.819Z,5095
2016-07-24T10:33:16.855Z,5100
2016-07-24T10:34:17.594Z,4595
2016-07-24T10:35:17.682Z,4270
2016-07-24T10:36:17.712Z,4880
2016-07-24T10:37:20.796Z,4660
2016-07-24T10:38:16.411Z,4470
2016-07-24T10:39:19.482Z,4585
2016-07-24T10:40:19.521Z,4320
2016-07-24T10:41:19.360Z,3990
2016-07-24T10:42:18.279Z,2505
2016-07-24T10:43:16.652Z,3070
2016-07-24T10:44:16.735Z,2865
2016-07-24T10:45:18.136Z,4200
2016-07-24T10:46:17.518Z,4480
2016-07-24T10:47:17.606Z,4295
2016-07-24T10:48:18.610Z,4510
2016-07-24T10:49:20.187Z,5365
2016-07-24T10:50:17.726Z,2680
2016-07-24T10:51:18.473Z,4430
2016-07-24T10:52:19.231Z,4505
2016-07-24T10:53:18.605Z,4125
2016-07-24T10:54:19.422Z,2215
2016-07-24T10:55:17.988Z,2720
2016-07-24T10:56:19.925Z,1970
2016-07-24T10:57:18.764Z,1880
2016-07-24T10:58:18.843Z,2890
2016-07-24T10:59:19.598Z,4280
2016-07-24T11:00:20.155Z,2965
2016-07-24T11:01:18.273Z,3745
2016-07-24T11:02:19.083Z,4970
2016-07-24T11:03:32.609Z,4040
2016-07-24T11:04:20.555Z,3925
2016-07-24T11:05:19.232Z,4035
2016-07-24T11:06:19.209Z,4580
2016-07-24T11:07:18.630Z,3980
2016-07-24T11:08:18.664Z,4810
2016-07-24T11:09:19.402Z,3610
2016-07-24T11:10:18.038Z,4870
2016-07-24T11:11:20.722Z,4695
2016-07-24T11:12:19.539Z,2970
2016-07-24T11:13:20.336Z,4365
2016-07-24T11:14:19.901Z,4440
2016-07-24T11:15:19.028Z,4380
2016-07-24T11:16:19.059Z,4320
2016-07-24T11:17:19.818Z,4500
2016-07-24T11:18:19.909Z,4315
2016-07-24T11:19:19.948Z,4400
2016-07-24T11:20:19.982Z,4110
2016-07-24T11:21:20.045Z,4070
2016-07-24T11:22:20.045Z,4425
2016-07-24T11:23:20.138Z,4700
2016-07-24T11:24:20.161Z,4145
2016-07-24T11:25:20.223Z,4280
2016-07-24T11:26:19.550Z,4240
2016-07-24T11:27:19.651Z,3775
2016-07-24T11:28:20.388Z,3710
2016-07-24T11:29:23.809Z,3850
2016-07-24T11:30:19.806Z,4610
2016-07-24T11:31:19.807Z,4375
2016-07-24T11:32:19.925Z,4405
2016-07-24T11:33:20.639Z,4385
2016-07-24T11:34:20.925Z,1585
2016-07-24T11:35:34.273Z,1440
2016-07-24T11:36:20.106Z,1720
2016-07-24T11:37:19.449Z,2315
2016-07-24T11:38:20.901Z,4485
2016-07-24T11:39:21.942Z,4670
2016-07-24T11:40:20.307Z,2180
2016-07-24T11:41:21.904Z,2900
2016-07-24T11:42:21.114Z,3485
2016-07-24T11:43:19.771Z,3565
2016-07-24T11:44:35.123Z,4285
2016-07-24T11:45:24.634Z,4230
2016-07-24T11:46:19.904Z,3975
2016-07-24T11:47:23.701Z,4115
2016-07-24T11:48:21.425Z,4355
2016-07-24T11:49:20.774Z,4315
2016-07-24T11:51:23.484Z,3055
2016-07-24T11:52:21.615Z,1545
2016-07-24T11:53:20.964Z,2130
2016-07-24T11:54:34.924Z,4210
2016-07-24T11:55:21.758Z,4015
2016-07-24T11:56:23.481Z,4285
2016-07-24T11:57:21.902Z,2725
2016-07-24T11:58:22.151Z,2790
2016-07-24T11:59:21.261Z,4115
2016-07-24T12:00:22.008Z,3815
2016-07-24T12:01:22.131Z,4535
2016-07-24T12:02:21.406Z,4700
2016-07-24T12:03:22.205Z,4355
2016-07-24T12:04:23.085Z,3600
2016-07-24T12:05:23.674Z,4510
2016-07-24T12:06:22.063Z,1345
2016-07-24T12:07:21.694Z,1830
2016-07-24T12:08:23.643Z,4370
2016-07-24T12:09:36.741Z,1980
2016-07-24T12:10:22.573Z,1620
2016-07-24T12:12:22.674Z,1890
2016-07-24T12:13:23.895Z,5480
2016-07-24T12:14:22.066Z,4880
2016-07-24T12:15:22.104Z,1730
2016-07-24T12:16:22.867Z,3535
2016-07-24T12:17:23.647Z,2025
2016-07-24T12:18:22.974Z,2025
2016-07-24T12:19:22.316Z,4035
2016-07-24T12:20:22.386Z,4340
2016-07-24T12:21:23.844Z,4210
2016-07-24T12:22:26.581Z,3185
2016-07-24T12:23:23.466Z,1105
2016-07-24T12:24:25.895Z,1130
2016-07-24T12:25:23.358Z,1185
2016-07-24T12:26:22.756Z,1170
2016-07-24T12:27:24.447Z,1070
2016-07-24T12:28:24.229Z,1000
2016-07-24T12:29:23.564Z,1100
2016-07-24T12:30:25.089Z,1570
2016-07-24T12:31:25.277Z,1015
2016-07-24T12:32:23.761Z,1020
2016-07-24T12:33:37.657Z,1135
2016-07-24T12:34:23.797Z,1210
2016-07-24T12:35:23.881Z,1280
2016-07-24T12:36:24.171Z,1475
2016-07-24T12:37:25.544Z,1450
2016-07-24T12:38:22.890Z,1400
2016-07-24T12:39:24.118Z,1305
2016-07-24T12:40:23.441Z,1220
2016-07-24T12:41:25.658Z,1405
2016-07-24T12:42:23.594Z,2390
2016-07-24T12:43:24.321Z,3090
2016-07-24T12:44:37.523Z,1880
2016-07-24T12:45:23.706Z,1500
2016-07-24T12:46:23.739Z,1590
2016-07-24T12:47:24.517Z,1895
2016-07-24T12:48:27.599Z,2185
2016-07-24T12:49:23.921Z,3220
2016-07-24T12:50:24.900Z,3900
2016-07-24T12:51:24.010Z,2355
2016-07-24T12:52:22.672Z,2690
2016-07-24T12:53:25.914Z,3155
2016-07-24T12:54:24.159Z,4460
2016-07-24T12:55:24.232Z,4235
2016-07-24T12:56:24.275Z,4485
2016-07-24T12:57:25.654Z,4505
2016-07-24T12:58:23.678Z,2690
2016-07-24T12:59:25.782Z,4830
2016-07-24T13:00:37.682Z,2585
2016-07-24T13:01:25.252Z,1490
2016-07-24T13:02:24.839Z,1350
2016-07-24T13:03:27.164Z,1540
2016-07-24T13:04:23.991Z,1675
2016-07-24T13:05:24.775Z,1580
2016-07-24T13:06:25.788Z,1545
2016-07-24T13:07:39.044Z,1880
2016-07-24T13:08:38.791Z,1550
2016-07-24T13:09:24.982Z,1460
2016-07-24T13:10:25.617Z,1255
2016-07-24T13:11:38.998Z,885
2016-07-24T13:12:25.805Z,880
2016-07-24T13:13:25.851Z,1005
2016-07-24T13:14:26.603Z,1120
2016-07-24T13:15:25.303Z,1140
2016-07-24T13:16:24.858Z,1360
2016-07-24T13:17:25.419Z,1155
2016-07-24T13:18:24.726Z,1225
2016-07-24T13:19:27.070Z,1130
2016-07-24T13:20:25.553Z,1205
2016-07-24T13:21:25.605Z,1010
2016-07-24T13:22:26.331Z,1000
2016-07-24T13:23:25.021Z,1710
2016-07-24T13:24:26.430Z,1570
2016-07-24T13:25:26.487Z,1050
2016-07-24T13:26:25.905Z,890
2016-07-24T13:27:26.623Z,790
2016-07-24T13:28:25.937Z,810
2016-07-24T13:29:28.341Z,880
2016-07-24T13:30:27.727Z,995
2016-07-24T13:31:26.140Z,1110
2016-07-24T13:32:26.159Z,1020
2016-07-24T13:33:26.930Z,955
2016-07-24T13:34:28.523Z,895
2016-07-24T13:35:25.590Z,820
2016-07-24T13:36:27.937Z,825
2016-07-24T13:37:26.450Z,905
2016-07-24T13:38:27.073Z,775
2016-07-24T13:39:27.246Z,760
2016-07-24T13:40:27.996Z,735
2016-07-24T13:41:27.330Z,780
2016-07-24T13:42:41.410Z,1105
2016-07-24T13:43:27.400Z,1395
2016-07-24T13:44:26.810Z,1600
2016-07-24T13:45:27.797Z,1500
2016-07-24T13:46:27.591Z,1445
2016-07-24T13:47:27.585Z,1545
2016-07-24T13:48:41.956Z,1665
2016-07-24T13:49:27.044Z,1890